sensor_id;sensor_type;location;lat;lon;timestamp;P1;durP1;ratioP1;P2;durP2;ratioP2
19905;SDS011;10115;50.906;4.438;2023-11-18T00:00:18;16.17;;;14.73;;
19905;SDS011;10115;50.906;4.438;2023-11-18T00:02:44;15.77;;;13.63;;
19905;SDS011;10115;50.906;4.438;2023-11-18T00:05:11;26.70;;;24.60;;
19905;SDS011;10115;50.906;4.438;2023-11-18T00:07:36;14.60;;;12.83;;
19905;SDS011;10115;50.906;4.438;2023-11-18T00:10:02;19.30;;;17.60;;
19905;SDS011;10115;50.906;4.438;2023-11-18T00:12:29;21.53;;;19.63;;
19905;SDS011;10115;50.906;4.438;2023-11-18T00:14:55;16.30;;;13.90;;
19905;SDS011;10115;50.906;4.438;2023-11-18T00:17:20;25.83;;;24.20;;
19905;SDS011;10115;50.906;4.438;2023-11-18T00:19:47;19.63;;;16.23;;
19905;SDS011;10115;50.906;4.438;2023-11-18T00:22:13;15.93;;;13.77;;
19905;SDS011;10115;50.906;4.438;2023-11-18T00:24:38;15.40;;;14.07;;
19905;SDS011;10115;50.906;4.438;2023-11-18T00:27:04;31.20;;;28.63;;
19905;SDS011;10115;50.906;4.438;2023-11-18T00:29:33;30.43;;;28.63;;
19905;SDS011;10115;50.906;4.438;2023-11-18T00:31:59;17.57;;;16.27;;
19905;SDS011;10115;50.906;4.438;2023-11-18T00:34:25;18.10;;;16.47;;
19905;SDS011;10115;50.906;4.438;2023-11-18T00:36:58;15.97;;;14.27;;
19905;SDS011;10115;50.906;4.438;2023-11-18T00:39:24;16.30;;;14.87;;
19905;SDS011;10115;50.906;4.438;2023-11-18T00:41:50;16.07;;;14.63;;
19905;SDS011;10115;50.906;4.438;2023-11-18T00:44:15;16.33;;;14.83;;
19905;SDS011;10115;50.906;4.438;2023-11-18T00:46:41;13.73;;;12.40;;
19905;SDS011;10115;50.906;4.438;2023-11-18T00:49:07;16.47;;;12.80;;
19905;SDS011;10115;50.906;4.438;2023-11-18T00:51:33;17.00;;;13.23;;
19905;SDS011;10115;50.906;4.438;2023-11-18T00:53:58;14.60;;;12.70;;
19905;SDS011;10115;50.906;4.438;2023-11-18T00:56:26;17.87;;;13.67;;
19905;SDS011;10115;50.906;4.438;2023-11-18T00:58:53;16.60;;;13.47;;
19905;SDS011;10115;50.906;4.438;2023-11-18T01:01:19;20.13;;;14.50;;
19905;SDS011;10115;50.906;4.438;2023-11-18T01:03:46;19.47;;;13.70;;
19905;SDS011;10115;50.906;4.438;2023-11-18T01:06:13;16.33;;;14.13;;
19905;SDS011;10115;50.906;4.438;2023-11-18T01:08:40;19.00;;;13.90;;
19905;SDS011;10115;50.906;4.438;2023-11-18T01:11:09;17.37;;;12.37;;
19905;SDS011;10115;50.906;4.438;2023-11-18T01:13:35;16.27;;;12.10;;
19905;SDS011;10115;50.906;4.438;2023-11-18T01:16:00;14.20;;;11.80;;
19905;SDS011;10115;50.906;4.438;2023-11-18T01:18:27;12.30;;;10.90;;
19905;SDS011;10115;50.906;4.438;2023-11-18T01:20:53;15.77;;;12.07;;
19905;SDS011;10115;50.906;4.438;2023-11-18T01:23:19;11.67;;;10.53;;
19905;SDS011;10115;50.906;4.438;2023-11-18T01:25:44;17.00;;;11.97;;
19905;SDS011;10115;50.906;4.438;2023-11-18T01:28:10;12.63;;;11.40;;
19905;SDS011;10115;50.906;4.438;2023-11-18T01:30:36;23.07;;;12.13;;
19905;SDS011;10115;50.906;4.438;2023-11-18T01:33:01;15.00;;;13.27;;
19905;SDS011;10115;50.906;4.438;2023-11-18T01:35:28;13.30;;;11.90;;
19905;SDS011;10115;50.906;4.438;2023-11-18T01:37:54;11.97;;;10.87;;
19905;SDS011;10115;50.906;4.438;2023-11-18T01:40:20;15.93;;;11.33;;
19905;SDS011;10115;50.906;4.438;2023-11-18T01:42:46;17.00;;;12.07;;
19905;SDS011;10115;50.906;4.438;2023-11-18T01:45:15;17.63;;;11.33;;
19905;SDS011;10115;50.906;4.438;2023-11-18T01:47:42;11.33;;;10.20;;
19905;SDS011;10115;50.906;4.438;2023-11-18T01:50:09;14.00;;;11.73;;
19905;SDS011;10115;50.906;4.438;2023-11-18T01:52:37;16.70;;;10.90;;
19905;SDS011;10115;50.906;4.438;2023-11-18T01:55:04;13.83;;;11.23;;
19905;SDS011;10115;50.906;4.438;2023-11-18T01:57:34;13.73;;;12.13;;
19905;SDS011;10115;50.906;4.438;2023-11-18T02:00:00;18.90;;;11.30;;
19905;SDS011;10115;50.906;4.438;2023-11-18T02:02:31;12.37;;;11.27;;
19905;SDS011;10115;50.906;4.438;2023-11-18T02:04:57;17.03;;;11.47;;
19905;SDS011;10115;50.906;4.438;2023-11-18T02:07:26;12.23;;;10.67;;
19905;SDS011;10115;50.906;4.438;2023-11-18T02:09:53;16.67;;;11.77;;
19905;SDS011;10115;50.906;4.438;2023-11-18T02:12:26;15.70;;;10.43;;
19905;SDS011;10115;50.906;4.438;2023-11-18T02:15:13;13.90;;;10.60;;
19905;SDS011;10115;50.906;4.438;2023-11-18T02:17:40;14.33;;;11.63;;
19905;SDS011;10115;50.906;4.438;2023-11-18T02:20:08;11.20;;;10.30;;
19905;SDS011;10115;50.906;4.438;2023-11-18T02:22:42;11.23;;;10.43;;
19905;SDS011;10115;50.906;4.438;2023-11-18T02:25:18;11.30;;;10.20;;
19905;SDS011;10115;50.906;4.438;2023-11-18T02:27:44;11.57;;;10.47;;
19905;SDS011;10115;50.906;4.438;2023-11-18T02:30:12;10.00;;;9.20;;
19905;SDS011;10115;50.906;4.438;2023-11-18T02:32:46;12.83;;;9.43;;
19905;SDS011;10115;50.906;4.438;2023-11-18T02:35:23;9.70;;;9.03;;
19905;SDS011;10115;50.906;4.438;2023-11-18T02:37:53;10.30;;;9.40;;
19905;SDS011;10115;50.906;4.438;2023-11-18T02:40:21;10.00;;;8.97;;
19905;SDS011;10115;50.906;4.438;2023-11-18T02:42:55;10.10;;;9.07;;
19905;SDS011;10115;50.906;4.438;2023-11-18T02:45:24;10.07;;;9.27;;
19905;SDS011;10115;50.906;4.438;2023-11-18T02:47:50;10.10;;;9.40;;
19905;SDS011;10115;50.906;4.438;2023-11-18T02:50:16;9.40;;;8.67;;
19905;SDS011;10115;50.906;4.438;2023-11-18T02:52:44;10.27;;;9.47;;
19905;SDS011;10115;50.906;4.438;2023-11-18T02:55:10;9.40;;;8.53;;
19905;SDS011;10115;50.906;4.438;2023-11-18T02:57:36;9.13;;;8.50;;
19905;SDS011;10115;50.906;4.438;2023-11-18T03:00:05;9.70;;;9.00;;
19905;SDS011;10115;50.906;4.438;2023-11-18T03:02:36;10.47;;;9.53;;
19905;SDS011;10115;50.906;4.438;2023-11-18T03:05:05;9.67;;;9.00;;
19905;SDS011;10115;50.906;4.438;2023-11-18T03:07:32;10.47;;;9.37;;
19905;SDS011;10115;50.906;4.438;2023-11-18T03:09:58;10.10;;;8.97;;
19905;SDS011;10115;50.906;4.438;2023-11-18T03:12:25;13.40;;;9.17;;
19905;SDS011;10115;50.906;4.438;2023-11-18T03:14:53;9.77;;;9.07;;
19905;SDS011;10115;50.906;4.438;2023-11-18T03:17:19;11.17;;;8.83;;
19905;SDS011;10115;50.906;4.438;2023-11-18T03:19:45;9.83;;;9.13;;
19905;SDS011;10115;50.906;4.438;2023-11-18T03:22:11;14.50;;;9.33;;
19905;SDS011;10115;50.906;4.438;2023-11-18T03:24:38;10.23;;;8.57;;
19905;SDS011;10115;50.906;4.438;2023-11-18T03:27:04;9.73;;;9.13;;
19905;SDS011;10115;50.906;4.438;2023-11-18T03:29:29;9.67;;;8.87;;
19905;SDS011;10115;50.906;4.438;2023-11-18T03:31:55;10.17;;;8.70;;
19905;SDS011;10115;50.906;4.438;2023-11-18T03:34:21;9.23;;;8.63;;
19905;SDS011;10115;50.906;4.438;2023-11-18T03:36:46;10.00;;;9.23;;
19905;SDS011;10115;50.906;4.438;2023-11-18T03:39:13;10.70;;;9.73;;
19905;SDS011;10115;50.906;4.438;2023-11-18T03:41:39;10.17;;;8.53;;
19905;SDS011;10115;50.906;4.438;2023-11-18T03:44:05;10.80;;;9.57;;
19905;SDS011;10115;50.906;4.438;2023-11-18T03:46:31;9.00;;;8.50;;
19905;SDS011;10115;50.906;4.438;2023-11-18T03:48:59;10.60;;;8.57;;
19905;SDS011;10115;50.906;4.438;2023-11-18T03:51:25;10.30;;;9.57;;
19905;SDS011;10115;50.906;4.438;2023-11-18T03:53:52;9.73;;;8.93;;
19905;SDS011;10115;50.906;4.438;2023-11-18T03:56:17;10.63;;;8.00;;
19905;SDS011;10115;50.906;4.438;2023-11-18T03:58:46;9.43;;;8.43;;
19905;SDS011;10115;50.906;4.438;2023-11-18T04:01:22;10.37;;;8.80;;
19905;SDS011;10115;50.906;4.438;2023-11-18T04:03:49;9.67;;;9.17;;
19905;SDS011;10115;50.906;4.438;2023-11-18T04:06:15;12.30;;;9.13;;
19905;SDS011;10115;50.906;4.438;2023-11-18T04:08:45;9.87;;;9.07;;
19905;SDS011;10115;50.906;4.438;2023-11-18T04:11:11;9.80;;;9.03;;
19905;SDS011;10115;50.906;4.438;2023-11-18T04:13:38;12.27;;;9.70;;
19905;SDS011;10115;50.906;4.438;2023-11-18T04:16:04;9.20;;;8.70;;
19905;SDS011;10115;50.906;4.438;2023-11-18T04:18:31;10.10;;;9.17;;
19905;SDS011;10115;50.906;4.438;2023-11-18T04:20:56;9.30;;;8.43;;
19905;SDS011;10115;50.906;4.438;2023-11-18T04:23:23;12.77;;;8.87;;
19905;SDS011;10115;50.906;4.438;2023-11-18T04:25:49;9.73;;;8.83;;
19905;SDS011;10115;50.906;4.438;2023-11-18T04:28:15;9.20;;;8.50;;
19905;SDS011;10115;50.906;4.438;2023-11-18T04:30:41;8.93;;;8.43;;
19905;SDS011;10115;50.906;4.438;2023-11-18T04:33:06;9.37;;;8.60;;
19905;SDS011;10115;50.906;4.438;2023-11-18T04:35:32;10.33;;;9.47;;
19905;SDS011;10115;50.906;4.438;2023-11-18T04:37:59;8.70;;;7.90;;
19905;SDS011;10115;50.906;4.438;2023-11-18T04:40:25;8.83;;;8.23;;
19905;SDS011;10115;50.906;4.438;2023-11-18T04:42:50;8.30;;;7.70;;
19905;SDS011;10115;50.906;4.438;2023-11-18T04:45:16;8.07;;;7.60;;
19905;SDS011;10115;50.906;4.438;2023-11-18T04:47:42;8.50;;;8.10;;
19905;SDS011;10115;50.906;4.438;2023-11-18T04:50:08;9.67;;;8.70;;
19905;SDS011;10115;50.906;4.438;2023-11-18T04:52:35;8.90;;;8.30;;
19905;SDS011;10115;50.906;4.438;2023-11-18T04:55:01;9.03;;;8.37;;
19905;SDS011;10115;50.906;4.438;2023-11-18T04:57:28;8.63;;;8.23;;
19905;SDS011;10115;50.906;4.438;2023-11-18T04:59:54;9.70;;;8.90;;
19905;SDS011;10115;50.906;4.438;2023-11-18T05:02:19;12.37;;;9.53;;
19905;SDS011;10115;50.906;4.438;2023-11-18T05:04:45;12.70;;;9.67;;
19905;SDS011;10115;50.906;4.438;2023-11-18T05:07:11;15.33;;;8.40;;
19905;SDS011;10115;50.906;4.438;2023-11-18T05:09:36;9.97;;;9.27;;
19905;SDS011;10115;50.906;4.438;2023-11-18T05:12:02;11.27;;;8.63;;
19905;SDS011;10115;50.906;4.438;2023-11-18T05:14:28;9.23;;;8.63;;
19905;SDS011;10115;50.906;4.438;2023-11-18T05:16:54;9.27;;;8.67;;
19905;SDS011;10115;50.906;4.438;2023-11-18T05:19:19;8.47;;;8.07;;
19905;SDS011;10115;50.906;4.438;2023-11-18T05:21:45;9.27;;;8.37;;
19905;SDS011;10115;50.906;4.438;2023-11-18T05:24:14;8.77;;;8.20;;
19905;SDS011;10115;50.906;4.438;2023-11-18T05:26:40;8.60;;;8.17;;
19905;SDS011;10115;50.906;4.438;2023-11-18T05:29:06;12.73;;;8.97;;
19905;SDS011;10115;50.906;4.438;2023-11-18T05:31:31;9.73;;;8.93;;
19905;SDS011;10115;50.906;4.438;2023-11-18T05:33:58;9.83;;;8.93;;
19905;SDS011;10115;50.906;4.438;2023-11-18T05:36:24;8.93;;;8.33;;
19905;SDS011;10115;50.906;4.438;2023-11-18T05:38:55;9.83;;;9.03;;
19905;SDS011;10115;50.906;4.438;2023-11-18T05:41:20;9.83;;;8.70;;
19905;SDS011;10115;50.906;4.438;2023-11-18T05:43:53;8.57;;;8.00;;
19905;SDS011;10115;50.906;4.438;2023-11-18T05:46:21;10.20;;;9.40;;
19905;SDS011;10115;50.906;4.438;2023-11-18T05:48:50;8.93;;;8.50;;
19905;SDS011;10115;50.906;4.438;2023-11-18T05:51:22;10.17;;;9.23;;
19905;SDS011;10115;50.906;4.438;2023-11-18T05:53:50;10.27;;;9.20;;
19905;SDS011;10115;50.906;4.438;2023-11-18T05:56:17;8.77;;;8.27;;
19905;SDS011;10115;50.906;4.438;2023-11-18T05:58:43;8.93;;;8.43;;
19905;SDS011;10115;50.906;4.438;2023-11-18T06:01:09;9.40;;;8.70;;
19905;SDS011;10115;50.906;4.438;2023-11-18T06:03:36;10.87;;;9.23;;
19905;SDS011;10115;50.906;4.438;2023-11-18T06:06:05;9.90;;;9.17;;
19905;SDS011;10115;50.906;4.438;2023-11-18T06:08:31;9.00;;;8.53;;
19905;SDS011;10115;50.906;4.438;2023-11-18T06:10:58;9.63;;;8.73;;
19905;SDS011;10115;50.906;4.438;2023-11-18T06:13:23;9.20;;;8.60;;
19905;SDS011;10115;50.906;4.438;2023-11-18T06:15:49;9.13;;;8.63;;
19905;SDS011;10115;50.906;4.438;2023-11-18T06:18:17;9.30;;;8.47;;
19905;SDS011;10115;50.906;4.438;2023-11-18T06:20:43;9.07;;;8.47;;
19905;SDS011;10115;50.906;4.438;2023-11-18T06:23:09;8.83;;;8.30;;
19905;SDS011;10115;50.906;4.438;2023-11-18T06:25:35;9.53;;;8.63;;
19905;SDS011;10115;50.906;4.438;2023-11-18T06:28:01;10.00;;;8.97;;
19905;SDS011;10115;50.906;4.438;2023-11-18T06:30:27;8.47;;;7.93;;
19905;SDS011;10115;50.906;4.438;2023-11-18T06:32:53;9.03;;;8.17;;
19905;SDS011;10115;50.906;4.438;2023-11-18T06:35:18;9.07;;;8.50;;
19905;SDS011;10115;50.906;4.438;2023-11-18T06:37:46;9.47;;;8.60;;
19905;SDS011;10115;50.906;4.438;2023-11-18T06:40:12;8.60;;;7.93;;
19905;SDS011;10115;50.906;4.438;2023-11-18T06:42:41;9.10;;;8.23;;
19905;SDS011;10115;50.906;4.438;2023-11-18T06:45:07;8.40;;;7.90;;
19905;SDS011;10115;50.906;4.438;2023-11-18T06:47:38;10.73;;;8.83;;
19905;SDS011;10115;50.906;4.438;2023-11-18T06:50:04;8.47;;;8.07;;
19905;SDS011;10115;50.906;4.438;2023-11-18T06:52:30;8.70;;;7.83;;
19905;SDS011;10115;50.906;4.438;2023-11-18T06:54:57;9.50;;;8.27;;
19905;SDS011;10115;50.906;4.438;2023-11-18T06:57:23;8.83;;;8.17;;
19905;SDS011;10115;50.906;4.438;2023-11-18T06:59:48;11.00;;;9.20;;
19905;SDS011;10115;50.906;4.438;2023-11-18T07:02:14;11.33;;;8.37;;
19905;SDS011;10115;50.906;4.438;2023-11-18T07:04:40;9.43;;;8.53;;
19905;SDS011;10115;50.906;4.438;2023-11-18T07:07:06;9.00;;;7.90;;
19905;SDS011;10115;50.906;4.438;2023-11-18T07:09:33;8.53;;;8.13;;
19905;SDS011;10115;50.906;4.438;2023-11-18T07:12:01;9.43;;;8.83;;
19905;SDS011;10115;50.906;4.438;2023-11-18T07:14:28;9.30;;;8.43;;
19905;SDS011;10115;50.906;4.438;2023-11-18T07:16:54;9.00;;;8.30;;
19905;SDS011;10115;50.906;4.438;2023-11-18T07:19:20;10.67;;;8.33;;
19905;SDS011;10115;50.906;4.438;2023-11-18T07:21:46;9.30;;;8.37;;
19905;SDS011;10115;50.906;4.438;2023-11-18T07:24:12;8.97;;;8.30;;
19905;SDS011;10115;50.906;4.438;2023-11-18T07:26:38;8.07;;;7.67;;
19905;SDS011;10115;50.906;4.438;2023-11-18T07:29:03;14.77;;;9.57;;
19905;SDS011;10115;50.906;4.438;2023-11-18T07:31:32;10.73;;;9.07;;
19905;SDS011;10115;50.906;4.438;2023-11-18T07:33:59;9.17;;;8.37;;
19905;SDS011;10115;50.906;4.438;2023-11-18T07:36:25;8.67;;;7.97;;
19905;SDS011;10115;50.906;4.438;2023-11-18T07:38:50;9.00;;;8.17;;
19905;SDS011;10115;50.906;4.438;2023-11-18T07:41:16;9.00;;;8.50;;
19905;SDS011;10115;50.906;4.438;2023-11-18T07:43:51;9.57;;;8.83;;
19905;SDS011;10115;50.906;4.438;2023-11-18T07:46:19;9.33;;;8.73;;
19905;SDS011;10115;50.906;4.438;2023-11-18T07:48:47;9.57;;;8.70;;
19905;SDS011;10115;50.906;4.438;2023-11-18T07:51:20;9.00;;;8.60;;
19905;SDS011;10115;50.906;4.438;2023-11-18T07:53:48;9.70;;;9.17;;
19905;SDS011;10115;50.906;4.438;2023-11-18T07:56:14;9.73;;;9.03;;
19905;SDS011;10115;50.906;4.438;2023-11-18T07:58:44;9.70;;;8.90;;
19905;SDS011;10115;50.906;4.438;2023-11-18T08:01:12;9.30;;;8.70;;
19905;SDS011;10115;50.906;4.438;2023-11-18T08:03:41;9.07;;;8.47;;
19905;SDS011;10115;50.906;4.438;2023-11-18T08:06:07;9.03;;;8.40;;
19905;SDS011;10115;50.906;4.438;2023-11-18T08:08:36;9.20;;;8.37;;
19905;SDS011;10115;50.906;4.438;2023-11-18T08:11:03;9.70;;;8.90;;
19905;SDS011;10115;50.906;4.438;2023-11-18T08:13:29;9.40;;;8.70;;
19905;SDS011;10115;50.906;4.438;2023-11-18T08:15:55;11.53;;;9.37;;
19905;SDS011;10115;50.906;4.438;2023-11-18T08:18:23;9.37;;;8.77;;
19905;SDS011;10115;50.906;4.438;2023-11-18T08:20:49;10.10;;;9.30;;
19905;SDS011;10115;50.906;4.438;2023-11-18T08:23:15;9.57;;;8.80;;
19905;SDS011;10115;50.906;4.438;2023-11-18T08:25:41;8.80;;;8.17;;
19905;SDS011;10115;50.906;4.438;2023-11-18T08:28:07;9.07;;;8.47;;
19905;SDS011;10115;50.906;4.438;2023-11-18T08:30:33;11.40;;;9.77;;
19905;SDS011;10115;50.906;4.438;2023-11-18T08:32:59;9.83;;;9.10;;
19905;SDS011;10115;50.906;4.438;2023-11-18T08:35:25;10.07;;;9.23;;
19905;SDS011;10115;50.906;4.438;2023-11-18T08:37:51;11.03;;;8.87;;
19905;SDS011;10115;50.906;4.438;2023-11-18T08:40:17;13.60;;;9.07;;
19905;SDS011;10115;50.906;4.438;2023-11-18T08:42:47;9.37;;;8.77;;
19905;SDS011;10115;50.906;4.438;2023-11-18T08:45:21;9.67;;;8.70;;
19905;SDS011;10115;50.906;4.438;2023-11-18T08:47:57;9.87;;;8.83;;
19905;SDS011;10115;50.906;4.438;2023-11-18T08:50:26;12.07;;;9.80;;
19905;SDS011;10115;50.906;4.438;2023-11-18T08:52:52;9.27;;;8.40;;
19905;SDS011;10115;50.906;4.438;2023-11-18T08:55:23;9.70;;;8.90;;
19905;SDS011;10115;50.906;4.438;2023-11-18T08:58:10;9.03;;;8.33;;
19905;SDS011;10115;50.906;4.438;2023-11-18T09:00:59;8.10;;;7.70;;
19905;SDS011;10115;50.906;4.438;2023-11-18T09:03:42;9.13;;;8.17;;
19905;SDS011;10115;50.906;4.438;2023-11-18T09:06:09;10.67;;;8.87;;
19905;SDS011;10115;50.906;4.438;2023-11-18T09:08:50;7.67;;;7.37;;
19905;SDS011;10115;50.906;4.438;2023-11-18T09:11:19;9.37;;;8.60;;
19905;SDS011;10115;50.906;4.438;2023-11-18T09:13:49;9.80;;;8.87;;
19905;SDS011;10115;50.906;4.438;2023-11-18T09:16:19;8.80;;;8.17;;
19905;SDS011;10115;50.906;4.438;2023-11-18T09:18:47;9.43;;;8.77;;
19905;SDS011;10115;50.906;4.438;2023-11-18T09:21:13;9.27;;;8.50;;
19905;SDS011;10115;50.906;4.438;2023-11-18T09:23:39;11.80;;;7.27;;
19905;SDS011;10115;50.906;4.438;2023-11-18T09:26:07;8.73;;;8.03;;
19905;SDS011;10115;50.906;4.438;2023-11-18T09:28:33;8.73;;;7.87;;
19905;SDS011;10115;50.906;4.438;2023-11-18T09:31:00;8.67;;;8.07;;
19905;SDS011;10115;50.906;4.438;2023-11-18T09:33:28;8.80;;;8.20;;
19905;SDS011;10115;50.906;4.438;2023-11-18T09:38:29;9.90;;;7.80;;
19905;SDS011;10115;50.906;4.438;2023-11-18T09:40:57;8.93;;;8.23;;
19905;SDS011;10115;50.906;4.438;2023-11-18T09:43:27;9.37;;;8.47;;
19905;SDS011;10115;50.906;4.438;2023-11-18T09:46:15;8.50;;;8.00;;
19905;SDS011;10115;50.906;4.438;2023-11-18T09:48:50;8.63;;;7.80;;
19905;SDS011;10115;50.906;4.438;2023-11-18T09:51:27;8.77;;;7.90;;
19905;SDS011;10115;50.906;4.438;2023-11-18T09:54:01;8.97;;;8.37;;
19905;SDS011;10115;50.906;4.438;2023-11-18T09:56:45;10.20;;;9.27;;
19905;SDS011;10115;50.906;4.438;2023-11-18T09:59:25;8.77;;;8.17;;
19905;SDS011;10115;50.906;4.438;2023-11-18T10:02:19;8.47;;;7.97;;
19905;SDS011;10115;50.906;4.438;2023-11-18T10:04:48;8.43;;;7.90;;
19905;SDS011;10115;50.906;4.438;2023-11-18T10:07:23;9.30;;;8.60;;
19905;SDS011;10115;50.906;4.438;2023-11-18T10:09:57;9.10;;;8.33;;
19905;SDS011;10115;50.906;4.438;2023-11-18T10:12:23;10.17;;;9.53;;
19905;SDS011;10115;50.906;4.438;2023-11-18T10:14:49;10.03;;;9.07;;
19905;SDS011;10115;50.906;4.438;2023-11-18T10:17:18;9.10;;;8.33;;
19905;SDS011;10115;50.906;4.438;2023-11-18T10:19:57;8.57;;;7.90;;
19905;SDS011;10115;50.906;4.438;2023-11-18T10:22:37;9.23;;;8.33;;
19905;SDS011;10115;50.906;4.438;2023-11-18T10:25:03;9.87;;;9.23;;
19905;SDS011;10115;50.906;4.438;2023-11-18T10:27:31;9.33;;;8.50;;
19905;SDS011;10115;50.906;4.438;2023-11-18T10:30:03;9.00;;;8.40;;
19905;SDS011;10115;50.906;4.438;2023-11-18T10:32:30;8.87;;;8.37;;
19905;SDS011;10115;50.906;4.438;2023-11-18T10:35:00;9.03;;;7.97;;
19905;SDS011;10115;50.906;4.438;2023-11-18T10:37:26;8.57;;;7.87;;
19905;SDS011;10115;50.906;4.438;2023-11-18T10:39:55;8.87;;;8.13;;
19905;SDS011;10115;50.906;4.438;2023-11-18T10:42:22;9.40;;;8.70;;
19905;SDS011;10115;50.906;4.438;2023-11-18T10:44:55;7.70;;;7.27;;
19905;SDS011;10115;50.906;4.438;2023-11-18T10:47:26;9.53;;;8.03;;
19905;SDS011;10115;50.906;4.438;2023-11-18T10:49:54;8.67;;;8.07;;
19905;SDS011;10115;50.906;4.438;2023-11-18T10:52:23;8.40;;;7.73;;
19905;SDS011;10115;50.906;4.438;2023-11-18T10:54:54;7.30;;;6.97;;
19905;SDS011;10115;50.906;4.438;2023-11-18T10:57:20;8.10;;;7.60;;
19905;SDS011;10115;50.906;4.438;2023-11-18T11:00:03;7.60;;;7.10;;
19905;SDS011;10115;50.906;4.438;2023-11-18T11:02:38;8.00;;;7.47;;
19905;SDS011;10115;50.906;4.438;2023-11-18T11:05:06;8.13;;;7.53;;
19905;SDS011;10115;50.906;4.438;2023-11-18T11:07:52;8.03;;;7.57;;
19905;SDS011;10115;50.906;4.438;2023-11-18T11:10:20;7.97;;;7.47;;
19905;SDS011;10115;50.906;4.438;2023-11-18T11:12:53;8.70;;;8.00;;
19905;SDS011;10115;50.906;4.438;2023-11-18T11:15:29;8.10;;;7.60;;
19905;SDS011;10115;50.906;4.438;2023-11-18T11:17:58;8.20;;;7.63;;
19905;SDS011;10115;50.906;4.438;2023-11-18T11:20:34;8.17;;;7.50;;
19905;SDS011;10115;50.906;4.438;2023-11-18T11:26:11;7.60;;;7.20;;
19905;SDS011;10115;50.906;4.438;2023-11-18T11:31:38;8.13;;;7.43;;
19905;SDS011;10115;50.906;4.438;2023-11-18T11:34:16;8.47;;;7.77;;
19905;SDS011;10115;50.906;4.438;2023-11-18T11:36:49;7.10;;;6.70;;
19905;SDS011;10115;50.906;4.438;2023-11-18T11:39:16;7.67;;;6.97;;
19905;SDS011;10115;50.906;4.438;2023-11-18T11:41:46;7.67;;;7.17;;
19905;SDS011;10115;50.906;4.438;2023-11-18T11:44:16;7.23;;;6.90;;
19905;SDS011;10115;50.906;4.438;2023-11-18T11:46:44;7.80;;;7.03;;
19905;SDS011;10115;50.906;4.438;2023-11-18T11:49:18;7.47;;;6.87;;
19905;SDS011;10115;50.906;4.438;2023-11-18T11:51:54;7.20;;;6.80;;
19905;SDS011;10115;50.906;4.438;2023-11-18T11:54:37;7.27;;;6.97;;
19905;SDS011;10115;50.906;4.438;2023-11-18T11:57:09;7.73;;;7.37;;
19905;SDS011;10115;50.906;4.438;2023-11-18T12:02:13;6.90;;;6.60;;
19905;SDS011;10115;50.906;4.438;2023-11-18T12:04:44;7.50;;;7.10;;
19905;SDS011;10115;50.906;4.438;2023-11-18T12:07:10;6.77;;;6.47;;
19905;SDS011;10115;50.906;4.438;2023-11-18T12:09:40;6.73;;;6.33;;
19905;SDS011;10115;50.906;4.438;2023-11-18T12:12:18;6.30;;;6.00;;
19905;SDS011;10115;50.906;4.438;2023-11-18T12:15:04;6.67;;;6.37;;
19905;SDS011;10115;50.906;4.438;2023-11-18T12:23:09;6.50;;;6.30;;
19905;SDS011;10115;50.906;4.438;2023-11-18T12:25:46;7.30;;;7.00;;
19905;SDS011;10115;50.906;4.438;2023-11-18T12:28:15;6.87;;;6.57;;
19905;SDS011;10115;50.906;4.438;2023-11-18T12:30:42;6.90;;;6.60;;
19905;SDS011;10115;50.906;4.438;2023-11-18T12:33:18;7.43;;;6.87;;
19905;SDS011;10115;50.906;4.438;2023-11-18T12:40:53;6.83;;;6.53;;
19905;SDS011;10115;50.906;4.438;2023-11-18T12:43:42;6.70;;;6.37;;
19905;SDS011;10115;50.906;4.438;2023-11-18T12:48:49;6.73;;;6.33;;
19905;SDS011;10115;50.906;4.438;2023-11-18T12:51:17;7.03;;;6.53;;
19905;SDS011;10115;50.906;4.438;2023-11-18T12:53:47;6.20;;;6.00;;
19905;SDS011;10115;50.906;4.438;2023-11-18T12:56:18;6.90;;;6.40;;
19905;SDS011;10115;50.906;4.438;2023-11-18T12:58:45;6.30;;;6.03;;
19905;SDS011;10115;50.906;4.438;2023-11-18T13:01:12;6.67;;;6.37;;
19905;SDS011;10115;50.906;4.438;2023-11-18T13:03:40;6.33;;;6.13;;
19905;SDS011;10115;50.906;4.438;2023-11-18T13:06:07;7.13;;;6.73;;
19905;SDS011;10115;50.906;4.438;2023-11-18T13:08:39;6.67;;;6.37;;
19905;SDS011;10115;50.906;4.438;2023-11-18T13:11:05;8.50;;;6.47;;
19905;SDS011;10115;50.906;4.438;2023-11-18T13:13:37;6.90;;;6.60;;
19905;SDS011;10115;50.906;4.438;2023-11-18T13:16:04;6.73;;;6.43;;
19905;SDS011;10115;50.906;4.438;2023-11-18T13:18:46;6.57;;;6.27;;
19905;SDS011;10115;50.906;4.438;2023-11-18T13:21:17;6.20;;;5.97;;
19905;SDS011;10115;50.906;4.438;2023-11-18T13:23:51;6.50;;;6.20;;
19905;SDS011;10115;50.906;4.438;2023-11-18T13:26:18;6.27;;;6.00;;
19905;SDS011;10115;50.906;4.438;2023-11-18T13:28:45;6.23;;;5.93;;
19905;SDS011;10115;50.906;4.438;2023-11-18T13:31:13;6.23;;;5.93;;
19905;SDS011;10115;50.906;4.438;2023-11-18T13:33:46;6.30;;;6.10;;
19905;SDS011;10115;50.906;4.438;2023-11-18T13:36:14;6.30;;;6.10;;
19905;SDS011;10115;50.906;4.438;2023-11-18T13:38:40;6.73;;;6.43;;
19905;SDS011;10115;50.906;4.438;2023-11-18T13:41:09;6.47;;;6.17;;
19905;SDS011;10115;50.906;4.438;2023-11-18T13:43:41;6.53;;;6.17;;
19905;SDS011;10115;50.906;4.438;2023-11-18T13:46:12;6.30;;;6.00;;
19905;SDS011;10115;50.906;4.438;2023-11-18T13:48:41;6.60;;;6.30;;
19905;SDS011;10115;50.906;4.438;2023-11-18T13:51:08;6.10;;;5.90;;
19905;SDS011;10115;50.906;4.438;2023-11-18T13:53:38;6.87;;;6.37;;
19905;SDS011;10115;50.906;4.438;2023-11-18T13:56:06;6.57;;;6.17;;
19905;SDS011;10115;50.906;4.438;2023-11-18T13:58:37;6.37;;;6.07;;
19905;SDS011;10115;50.906;4.438;2023-11-18T14:01:07;6.60;;;6.30;;
19905;SDS011;10115;50.906;4.438;2023-11-18T14:03:37;5.90;;;5.70;;
19905;SDS011;10115;50.906;4.438;2023-11-18T14:06:05;6.53;;;6.23;;
19905;SDS011;10115;50.906;4.438;2023-11-18T14:08:32;6.43;;;6.13;;
19905;SDS011;10115;50.906;4.438;2023-11-18T14:10:59;13.90;;;6.87;;
19905;SDS011;10115;50.906;4.438;2023-11-18T14:13:25;6.00;;;5.80;;
19905;SDS011;10115;50.906;4.438;2023-11-18T14:15:55;6.23;;;5.93;;
19905;SDS011;10115;50.906;4.438;2023-11-18T14:18:24;6.40;;;6.10;;
19905;SDS011;10115;50.906;4.438;2023-11-18T14:20:51;6.07;;;5.87;;
19905;SDS011;10115;50.906;4.438;2023-11-18T14:23:17;6.40;;;6.10;;
19905;SDS011;10115;50.906;4.438;2023-11-18T14:25:43;6.17;;;5.90;;
19905;SDS011;10115;50.906;4.438;2023-11-18T14:28:10;6.50;;;6.20;;
19905;SDS011;10115;50.906;4.438;2023-11-18T14:30:36;6.43;;;6.13;;
19905;SDS011;10115;50.906;4.438;2023-11-18T14:33:02;6.90;;;6.60;;
19905;SDS011;10115;50.906;4.438;2023-11-18T14:35:29;6.00;;;5.80;;
19905;SDS011;10115;50.906;4.438;2023-11-18T14:37:54;6.30;;;6.10;;
19905;SDS011;10115;50.906;4.438;2023-11-18T14:40:21;6.30;;;6.07;;
19905;SDS011;10115;50.906;4.438;2023-11-18T14:42:49;6.50;;;6.00;;
19905;SDS011;10115;50.906;4.438;2023-11-18T14:45:15;6.20;;;6.00;;
19905;SDS011;10115;50.906;4.438;2023-11-18T14:47:42;6.20;;;6.00;;
19905;SDS011;10115;50.906;4.438;2023-11-18T14:50:13;6.20;;;5.90;;
19905;SDS011;10115;50.906;4.438;2023-11-18T14:52:48;5.90;;;5.70;;
19905;SDS011;10115;50.906;4.438;2023-11-18T14:55:23;6.13;;;5.93;;
19905;SDS011;10115;50.906;4.438;2023-11-18T14:57:50;5.83;;;5.63;;
19905;SDS011;10115;50.906;4.438;2023-11-18T15:00:16;6.47;;;6.17;;
19905;SDS011;10115;50.906;4.438;2023-11-18T15:02:47;6.43;;;6.13;;
19905;SDS011;10115;50.906;4.438;2023-11-18T15:05:16;6.47;;;6.07;;
19905;SDS011;10115;50.906;4.438;2023-11-18T15:07:46;6.17;;;5.97;;
19905;SDS011;10115;50.906;4.438;2023-11-18T15:10:16;5.90;;;5.70;;
19905;SDS011;10115;50.906;4.438;2023-11-18T15:12:47;5.60;;;5.40;;